Time;durP1;ratioP1;P1;durP2;ratioP2;P2;SDS_P1;SDS_P2;PMS_P1;PMS_P2;Temp;Humidity;BMP_temperature;BMP_pressure;BME280_temperature;BME280_humidity;BME280_pressure;Samples;Min_cycle;Max_cycle;Signal;HPM_P1;HPM_P2
2022/04/04 00:00:12;;;;;;;15.07;7.07;;;2.20;99.90;;;;;;5039757;28;20281;-77
2022/04/04 00:02:38;;;;;;;9.27;6.47;;;2.20;99.90;;;;;;5039564;28;20201;-77
2022/04/04 00:05:05;;;;;;;13.03;6.50;;;2.20;99.90;;;;;;5038773;28;20184;-77
2022/04/04 00:07:31;;;;;;;10.83;6.57;;;2.20;99.90;;;;;;5041244;28;20176;-77
2022/04/04 00:09:56;;;;;;;15.50;6.83;;;2.20;99.90;;;;;;5039068;28;20239;-77
2022/04/04 00:12:22;;;;;;;10.57;6.57;;;2.10;99.90;;;;;;5038853;28;20176;-77
2022/04/04 00:14:48;;;;;;;13.97;6.93;;;2.10;99.90;;;;;;5036655;28;20606;-77
2022/04/04 00:17:14;;;;;;;10.10;6.57;;;2.10;99.90;;;;;;5036210;28;20177;-77
2022/04/04 00:19:40;;;;;;;11.30;6.83;;;2.10;99.90;;;;;;5036011;28;20562;-78
2022/04/04 00:22:06;;;;;;;12.50;6.77;;;2.10;99.90;;;;;;5036035;28;20172;-78
2022/04/04 00:24:32;;;;;;;13.83;6.77;;;2.10;99.90;;;;;;5036003;28;20180;-78
2022/04/04 00:26:58;;;;;;;10.93;6.73;;;2.00;99.90;;;;;;5036045;28;20253;-78
2022/04/04 00:29:24;;;;;;;10.37;6.60;;;2.10;99.90;;;;;;5035907;28;20185;-78
2022/04/04 00:31:50;;;;;;;15.97;6.97;;;2.00;99.90;;;;;;5035713;28;20190;-78
2022/04/04 00:34:16;;;;;;;14.00;6.83;;;2.00;99.90;;;;;;5036082;28;20173;-78
2022/04/04 00:36:43;;;;;;;13.07;7.27;;;2.00;99.90;;;;;;5035961;28;20173;-78
2022/04/04 00:39:09;;;;;;;13.17;7.20;;;2.00;99.90;;;;;;5035839;28;20283;-78
2022/04/04 00:41:35;;;;;;;11.73;7.03;;;2.00;99.90;;;;;;5035745;28;20230;-78
2022/04/04 00:44:00;;;;;;;10.87;6.90;;;2.00;99.90;;;;;;5035756;28;20175;-78
2022/04/04 00:46:26;;;;;;;11.00;7.33;;;2.00;99.90;;;;;;5035637;28;20562;-78
2022/04/04 00:48:52;;;;;;;10.53;6.60;;;2.00;99.90;;;;;;5035753;28;20235;-78
2022/04/04 00:51:18;;;;;;;12.63;7.17;;;2.00;99.90;;;;;;5035651;28;20174;-78
2022/04/04 00:53:44;;;;;;;10.80;6.40;;;2.10;99.90;;;;;;5035656;28;20177;-78
2022/04/04 00:56:11;;;;;;;11.00;7.03;;;2.00;99.90;;;;;;5035461;28;20176;-78
2022/04/04 00:58:38;;;;;;;15.57;6.77;;;2.00;99.90;;;;;;5035359;28;20184;-78
2022/04/04 01:01:04;;;;;;;11.30;7.00;;;2.00;99.90;;;;;;5035522;28;20542;-78
2022/04/04 01:03:30;;;;;;;14.53;7.47;;;2.00;99.90;;;;;;5035366;28;20172;-78
2022/04/04 01:05:58;;;;;;;10.13;6.50;;;2.00;99.90;;;;;;5034894;28;20599;-78
2022/04/04 01:08:24;;;;;;;11.13;6.90;;;2.00;99.90;;;;;;5035280;28;20229;-78
2022/04/04 01:10:50;;;;;;;14.20;7.30;;;2.10;99.90;;;;;;5035096;28;20687;-78
2022/04/04 01:13:16;;;;;;;13.60;7.53;;;2.00;99.90;;;;;;5034763;28;20195;-78
2022/04/04 01:15:41;;;;;;;10.13;6.50;;;2.10;99.90;;;;;;5035184;28;20200;-78
2022/04/04 01:18:08;;;;;;;12.30;7.47;;;2.10;99.90;;;;;;5035199;28;20212;-78
2022/04/04 01:20:34;;;;;;;10.93;6.43;;;2.00;99.90;;;;;;5034874;28;20672;-78
2022/04/04 01:23:00;;;;;;;11.23;6.80;;;2.00;99.90;;;;;;5035129;28;20180;-78
2022/04/04 01:25:28;;;;;;;12.00;6.60;;;2.10;99.90;;;;;;5035193;28;20957;-79
2022/04/04 01:27:55;;;;;;;12.07;6.53;;;2.10;99.90;;;;;;5035353;28;20176;-79
2022/04/04 01:30:23;;;;;;;13.97;7.30;;;2.10;99.90;;;;;;5034697;28;20223;-79
2022/04/04 01:32:49;;;;;;;10.80;6.60;;;2.00;99.90;;;;;;5053205;28;20243;-78
2022/04/04 01:35:18;;;;;;;13.63;6.53;;;2.00;99.90;;;;;;5035367;28;20176;-78
2022/04/04 01:37:45;;;;;;;14.63;6.30;;;2.00;99.90;;;;;;5035630;28;20180;-78
2022/04/04 01:40:11;;;;;;;12.53;6.23;;;2.00;99.90;;;;;;5034675;28;20191;-78
2022/04/04 01:42:37;;;;;;;10.93;6.50;;;1.90;99.90;;;;;;5034375;28;20178;-79
2022/04/04 01:45:08;;;;;;;11.93;6.47;;;2.00;99.90;;;;;;5035078;28;20169;-78
2022/04/04 01:47:34;;;;;;;10.33;6.60;;;2.00;99.90;;;;;;5035145;28;20180;-78
2022/04/04 01:50:00;;;;;;;10.80;6.47;;;2.00;99.90;;;;;;5034639;28;20203;-78
2022/04/04 01:52:29;;;;;;;12.03;6.37;;;1.90;99.90;;;;;;5034470;28;20783;-78
2022/04/04 01:54:54;;;;;;;14.63;7.03;;;1.90;99.90;;;;;;5034322;28;20171;-78
2022/04/04 01:57:20;;;;;;;13.87;6.70;;;1.90;99.90;;;;;;5038304;28;20522;-77
2022/04/04 01:59:46;;;;;;;15.43;6.70;;;1.90;99.90;;;;;;5038861;28;20362;-78
2022/04/04 02:02:12;;;;;;;14.50;6.57;;;1.90;99.90;;;;;;5038592;28;20257;-77
2022/04/04 02:04:38;;;;;;;12.50;7.33;;;1.90;99.90;;;;;;5039318;28;20178;-78
2022/04/04 02:07:05;;;;;;;20.70;7.10;;;1.90;99.90;;;;;;5037282;28;20211;-78
2022/04/04 02:09:32;;;;;;;10.53;6.20;;;1.90;99.90;;;;;;5038525;28;20222;-78
2022/04/04 02:11:58;;;;;;;12.70;7.03;;;1.90;99.90;;;;;;5038125;28;20174;-78
2022/04/04 02:14:23;;;;;;;12.20;6.73;;;1.90;99.90;;;;;;5038050;28;20167;-77
2022/04/04 02:16:49;;;;;;;11.60;6.77;;;1.90;99.90;;;;;;5038380;28;20576;-78
2022/04/04 02:19:17;;;;;;;19.73;7.03;;;1.90;99.90;;;;;;5036925;28;20199;-77
2022/04/04 02:21:43;;;;;;;12.17;6.40;;;1.90;99.90;;;;;;5037911;28;20177;-78
2022/04/04 02:24:12;;;;;;;13.00;7.23;;;2.00;99.90;;;;;;5039078;28;20208;-77
2022/04/04 02:26:38;;;;;;;13.80;7.17;;;1.90;99.90;;;;;;5038200;28;20203;-77
2022/04/04 02:29:04;;;;;;;10.43;6.07;;;2.00;99.90;;;;;;5038405;28;20233;-77
2022/04/04 02:31:30;;;;;;;14.87;6.37;;;2.00;99.90;;;;;;5038689;28;20233;-77
2022/04/04 02:33:56;;;;;;;12.03;6.07;;;2.00;99.90;;;;;;5038013;28;20177;-78
2022/04/04 02:36:22;;;;;;;10.80;5.83;;;2.00;99.90;;;;;;5037538;28;20175;-77
2022/04/04 02:38:49;;;;;;;12.07;6.40;;;2.00;99.90;;;;;;5036809;28;20200;-78
2022/04/04 02:41:15;;;;;;;12.33;6.30;;;2.00;99.90;;;;;;5036689;28;20188;-78
2022/04/04 02:43:41;;;;;;;10.57;6.03;;;2.00;99.90;;;;;;5041185;28;20182;-77
2022/04/04 02:46:08;;;;;;;10.90;6.13;;;2.00;99.90;;;;;;5042375;28;20256;-78
2022/04/04 02:48:34;;;;;;;9.27;5.63;;;2.00;99.90;;;;;;5041919;28;20165;-77
2022/04/04 02:51:00;;;;;;;15.70;6.40;;;2.00;99.90;;;;;;5042693;28;20233;-78
2022/04/04 02:53:26;;;;;;;11.73;5.60;;;2.00;99.90;;;;;;5041549;28;20170;-78
2022/04/04 02:58:35;;;;;;;16.13;6.13;;;2.00;99.90;;;;;;5060765;28;20176;-78
2022/04/04 03:01:03;;;;;;;12.17;7.13;;;2.00;99.90;;;;;;5042759;28;20548;-78
2022/04/04 03:03:29;;;;;;;13.07;6.53;;;2.10;99.90;;;;;;5042338;28;20195;-77
2022/04/04 03:05:54;;;;;;;10.97;6.23;;;2.00;99.90;;;;;;5040402;28;20669;-78
2022/04/04 03:08:20;;;;;;;13.10;7.00;;;2.00;99.90;;;;;;5040636;28;20221;-78
2022/04/04 03:10:46;;;;;;;11.80;7.07;;;2.10;99.90;;;;;;5040820;28;20242;-78
2022/04/04 03:13:12;;;;;;;15.87;7.57;;;2.10;99.90;;;;;;5041067;28;20176;-78
2022/04/04 03:15:37;;;;;;;18.07;8.57;;;2.10;99.90;;;;;;5040890;28;20187;-78
2022/04/04 03:18:04;;;;;;;17.87;8.33;;;2.10;99.90;;;;;;5040179;28;20207;-78
2022/04/04 03:20:31;;;;;;;15.77;8.10;;;2.10;99.90;;;;;;5037946;28;20195;-77
2022/04/04 03:22:58;;;;;;;16.47;8.83;;;2.20;99.90;;;;;;5037768;28;20240;-77
2022/04/04 03:25:25;;;;;;;19.10;8.50;;;2.10;99.90;;;;;;5037710;28;20176;-77
2022/04/04 03:27:51;;;;;;;21.83;9.13;;;2.20;99.90;;;;;;5038495;28;20171;-78
2022/04/04 03:30:19;;;;;;;20.03;9.37;;;2.20;99.90;;;;;;5038208;28;20192;-78
2022/04/04 03:32:46;;;;;;;16.90;8.90;;;2.20;99.90;;;;;;5037380;28;20183;-78
2022/04/04 03:35:15;;;;;;;18.00;8.70;;;2.20;99.90;;;;;;5037001;28;20641;-79
2022/04/04 03:37:42;;;;;;;19.27;9.30;;;2.30;99.90;;;;;;5037888;28;20596;-78
2022/04/04 03:40:12;;;;;;;24.17;9.80;;;2.30;99.90;;;;;;5036974;28;20186;-78
2022/04/04 03:42:38;;;;;;;19.50;9.30;;;2.30;99.90;;;;;;5036936;28;20179;-78
2022/04/04 03:45:08;;;;;;;20.83;9.33;;;2.30;99.90;;;;;;5037207;28;20754;-78
2022/04/04 03:47:33;;;;;;;19.00;8.80;;;2.30;99.90;;;;;;5038162;28;20207;-78
2022/04/04 03:49:59;;;;;;;21.10;9.73;;;2.30;99.90;;;;;;5039319;28;20241;-77
2022/04/04 03:52:26;;;;;;;23.57;9.27;;;2.40;99.90;;;;;;5039377;28;20676;-77
2022/04/04 03:54:51;;;;;;;17.73;8.70;;;2.30;99.90;;;;;;5038614;28;20173;-78
2022/04/04 03:57:17;;;;;;;19.17;9.07;;;2.30;99.90;;;;;;5039202;28;20180;-78
2022/04/04 03:59:44;;;;;;;15.30;8.23;;;2.30;99.90;;;;;;5039659;28;20278;-78
2022/04/04 04:02:11;;;;;;;16.30;8.50;;;2.30;99.90;;;;;;5038749;28;20170;-78
2022/04/04 04:04:37;;;;;;;14.37;8.70;;;2.30;99.90;;;;;;5039053;28;20186;-78
2022/04/04 04:07:03;;;;;;;15.87;8.70;;;2.30;99.90;;;;;;5037032;28;20200;-77
2022/04/04 04:09:29;;;;;;;14.57;8.17;;;2.30;99.90;;;;;;5037086;28;20641;-77
2022/04/04 04:11:55;;;;;;;18.53;8.97;;;2.30;99.90;;;;;;5037380;28;20211;-77
2022/04/04 04:14:22;;;;;;;16.80;9.13;;;2.40;99.90;;;;;;5037987;28;20656;-77
2022/04/04 04:16:47;;;;;;;16.20;8.27;;;2.30;99.90;;;;;;5039317;28;20182;-77
2022/04/04 04:20:19;;;;;;;19.87;8.70;;;2.40;99.90;;;;;;5037829;28;20200;-78
2022/04/04 04:21:58;;;;;;;21.37;8.33;;;2.30;99.90;;;;;;5054026;28;20174;-78
2022/04/04 04:24:24;;;;;;;15.57;8.10;;;2.30;99.90;;;;;;5036548;28;20196;-78
2022/04/04 04:26:50;;;;;;;16.17;7.47;;;2.40;99.90;;;;;;5036295;28;20575;-77
2022/04/04 04:29:16;;;;;;;17.53;8.60;;;2.40;99.90;;;;;;5036231;28;20284;-77
2022/04/04 04:31:42;;;;;;;17.20;7.87;;;2.40;99.90;;;;;;5036149;28;20191;-77
2022/04/04 04:34:08;;;;;;;17.77;8.00;;;2.40;99.90;;;;;;5036152;28;20166;-77
2022/04/04 04:36:36;;;;;;;16.37;6.77;;;2.40;99.90;;;;;;5036074;28;20214;-77
2022/04/04 04:39:02;;;;;;;11.87;6.80;;;2.50;99.90;;;;;;5036047;28;20205;-77
2022/04/04 04:41:28;;;;;;;15.87;7.33;;;2.50;99.90;;;;;;5035992;28;20650;-77
2022/04/04 04:43:53;;;;;;;14.20;6.87;;;2.60;99.90;;;;;;5035888;28;20175;-77
2022/04/04 04:46:19;;;;;;;14.73;7.97;;;2.60;99.90;;;;;;5035929;28;20201;-78
2022/04/04 04:48:45;;;;;;;13.50;6.70;;;2.60;99.90;;;;;;5035811;28;20641;-76
2022/04/04 04:51:11;;;;;;;12.77;7.03;;;2.60;99.90;;;;;;5035779;28;20576;-76
2022/04/04 04:53:37;;;;;;;13.73;6.93;;;2.70;99.90;;;;;;5035726;28;20225;-76
2022/04/04 04:56:03;;;;;;;14.53;6.50;;;2.70;99.90;;;;;;5035443;28;20252;-77
2022/04/04 04:58:30;;;;;;;16.53;6.10;;;2.70;99.90;;;;;;5035533;28;20306;-76
2022/04/04 05:00:56;;;;;;;17.93;7.33;;;2.70;99.90;;;;;;5035626;28;20173;-77
2022/04/04 05:03:24;;;;;;;13.87;6.90;;;2.70;99.90;;;;;;5035544;28;20186;-77
2022/04/04 05:05:50;;;;;;;12.67;6.60;;;2.70;99.90;;;;;;5034205;28;20212;-76
2022/04/04 05:08:16;;;;;;;14.10;7.07;;;2.80;99.90;;;;;;5035508;28;20172;-77
2022/04/04 05:10:41;;;;;;;12.47;6.60;;;2.80;99.90;;;;;;5035361;28;20206;-77
2022/04/04 05:13:07;;;;;;;12.70;5.60;;;2.80;99.90;;;;;;5035668;28;20175;-76
2022/04/04 05:15:33;;;;;;;10.87;6.20;;;2.80;99.90;;;;;;5035526;28;20173;-76
2022/04/04 05:17:59;;;;;;;11.70;5.83;;;2.90;99.90;;;;;;5035586;28;20263;-77
2022/04/04 05:20:25;;;;;;;12.00;6.70;;;2.90;99.90;;;;;;5035370;28;20287;-78
2022/04/04 05:22:50;;;;;;;14.20;7.30;;;2.90;99.90;;;;;;5034860;28;20186;-77
2022/04/04 05:25:16;;;;;;;10.37;5.73;;;2.90;99.90;;;;;;5034968;28;20172;-77
2022/04/04 05:27:42;;;;;;;12.50;5.33;;;3.00;99.90;;;;;;5034879;28;20656;-77
2022/04/04 05:30:09;;;;;;;12.53;6.10;;;3.00;99.90;;;;;;5034821;28;20204;-77
2022/04/04 05:32:36;;;;;;;10.30;5.03;;;3.00;99.90;;;;;;5034802;28;20554;-76
2022/04/04 05:35:08;;;;;;;14.53;6.07;;;3.00;99.90;;;;;;5034865;28;20624;-76
2022/04/04 05:37:34;;;;;;;11.47;5.70;;;3.10;99.90;;;;;;5034875;28;20188;-75
2022/04/04 05:40:01;;;;;;;11.43;5.60;;;3.20;99.90;;;;;;5052657;28;20229;-75
2022/04/04 05:42:28;;;;;;;9.63;5.07;;;3.20;99.90;;;;;;5034603;28;20702;-76
2022/04/04 05:44:54;;;;;;;12.27;5.87;;;3.20;99.90;;;;;;5035003;28;20222;-76
2022/04/04 05:47:20;;;;;;;10.27;5.80;;;3.20;99.90;;;;;;5034369;28;20243;-75
2022/04/04 05:49:50;;;;;;;13.57;5.27;;;3.30;99.90;;;;;;5034485;28;20726;-75
2022/04/04 05:52:17;;;;;;;9.03;5.27;;;3.30;99.90;;;;;;5033344;28;20551;-75
2022/04/04 05:54:54;;;;;;;8.43;5.07;;;3.30;99.90;;;;;;5034327;28;20645;-75
2022/04/04 05:57:29;;;;;;;10.60;5.47;;;3.40;99.90;;;;;;5034648;28;20173;-75
2022/04/04 05:59:55;;;;;;;12.20;5.23;;;3.40;99.90;;;;;;5034487;28;20283;-75
2022/04/04 06:02:26;;;;;;;13.50;5.67;;;3.50;99.90;;;;;;5033936;28;20176;-75
2022/04/04 06:04:52;;;;;;;7.80;4.83;;;3.50;99.90;;;;;;5034376;28;20206;-75
2022/04/04 06:07:18;;;;;;;8.67;4.43;;;3.50;99.90;;;;;;5034364;28;20208;-75
2022/04/04 06:09:44;;;;;;;8.47;4.93;;;3.60;99.90;;;;;;5034182;28;20205;-75
2022/04/04 06:12:10;;;;;;;7.70;4.83;;;3.60;99.90;;;;;;5033982;28;20188;-76
2022/04/04 06:14:36;;;;;;;8.37;4.77;;;3.70;99.90;;;;;;5034320;28;20176;-75
2022/04/04 06:17:06;;;;;;;10.00;5.60;;;3.70;99.90;;;;;;5034210;28;20169;-77
2022/04/04 06:19:34;;;;;;;15.70;4.90;;;3.70;99.90;;;;;;5034199;28;20568;-75
2022/04/04 06:22:00;;;;;;;6.83;4.80;;;3.80;99.90;;;;;;5034117;28;20188;-77
2022/04/04 06:24:27;;;;;;;15.93;5.80;;;3.80;99.90;;;;;;5034265;28;20549;-75
2022/04/04 06:26:52;;;;;;;10.30;5.40;;;3.80;99.90;;;;;;5034228;28;20292;-75
2022/04/04 06:29:18;;;;;;;9.20;4.40;;;3.80;99.90;;;;;;5033971;28;20299;-77
2022/04/04 06:31:46;;;;;;;8.80;4.73;;;3.90;99.90;;;;;;5034048;28;20184;-75
2022/04/04 06:34:11;;;;;;;10.10;4.67;;;3.90;99.90;;;;;;5034032;28;20205;-75
2022/04/04 06:36:40;;;;;;;8.90;5.33;;;3.90;99.90;;;;;;5034076;28;20219;-75
2022/04/04 06:39:06;;;;;;;14.27;5.93;;;3.90;99.90;;;;;;5033976;28;20211;-75
2022/04/04 06:41:32;;;;;;;15.97;5.37;;;3.90;99.90;;;;;;5033888;28;20184;-75
2022/04/04 06:43:58;;;;;;;15.40;5.67;;;3.90;99.90;;;;;;5033910;28;20177;-75
2022/04/04 06:46:25;;;;;;;16.70;6.00;;;3.90;99.90;;;;;;5033721;28;20209;-75
2022/04/04 06:48:51;;;;;;;12.80;5.70;;;3.90;99.90;;;;;;5033688;28;20193;-75
2022/04/04 06:51:18;;;;;;;10.17;5.40;;;4.00;99.90;;;;;;5033441;28;20218;-75
2022/04/04 06:53:45;;;;;;;8.93;5.60;;;4.00;99.90;;;;;;5051792;28;20173;-75
2022/04/04 06:56:11;;;;;;;10.87;5.60;;;4.00;99.90;;;;;;5033344;28;20177;-75
2022/04/04 06:58:37;;;;;;;11.67;6.53;;;4.10;99.90;;;;;;5033465;28;20661;-76
2022/04/04 07:01:03;;;;;;;10.10;5.97;;;4.10;99.90;;;;;;5033286;28;20540;-75
2022/04/04 07:03:29;;;;;;;12.43;6.40;;;4.10;99.90;;;;;;5033452;28;20168;-76
2022/04/04 07:05:55;;;;;;;11.80;6.17;;;4.10;99.90;;;;;;5033663;28;20201;-76
2022/04/04 07:08:21;;;;;;;11.57;5.60;;;4.20;99.90;;;;;;5033600;28;20181;-75
2022/04/04 07:10:47;;;;;;;10.37;6.37;;;4.30;99.90;;;;;;5033516;28;20249;-75
2022/04/04 07:13:14;;;;;;;12.03;6.50;;;4.30;99.90;;;;;;5033284;28;20173;-76
2022/04/04 07:15:41;;;;;;;12.27;6.70;;;4.40;99.90;;;;;;5033734;28;20188;-75
2022/04/04 07:18:07;;;;;;;12.73;6.73;;;4.40;99.90;;;;;;5033630;28;20180;-75
2022/04/04 07:20:33;;;;;;;12.80;6.07;;;4.40;99.90;;;;;;5033401;28;20204;-75
2022/04/04 07:22:59;;;;;;;8.97;5.53;;;4.40;99.90;;;;;;5033479;28;20263;-77
2022/04/04 07:25:25;;;;;;;12.50;5.93;;;4.50;99.90;;;;;;5051290;28;20561;-76
2022/04/04 07:27:51;;;;;;;9.57;5.73;;;4.60;99.90;;;;;;5033807;28;20199;-75
2022/04/04 07:30:18;;;;;;;10.60;6.20;;;4.70;99.90;;;;;;5037195;28;20204;-75
2022/04/04 07:32:47;;;;;;;16.00;6.33;;;4.70;99.90;;;;;;5036069;28;20225;-75
2022/04/04 07:35:13;;;;;;;14.10;6.93;;;4.80;99.90;;;;;;5036396;28;20174;-76
2022/04/04 07:37:43;;;;;;;12.57;6.60;;;4.90;99.90;;;;;;5036848;28;20226;-76
2022/04/04 07:40:11;;;;;;;11.73;6.17;;;5.00;99.90;;;;;;5037124;28;20197;-75
2022/04/04 07:42:43;;;;;;;13.53;7.00;;;5.10;99.90;;;;;;5036285;28;20247;-76
2022/04/04 07:45:11;;;;;;;13.43;6.70;;;5.10;99.90;;;;;;5036376;28;20181;-76
2022/04/04 07:47:37;;;;;;;17.80;7.30;;;5.20;99.90;;;;;;5035667;28;20261;-76
2022/04/04 07:50:07;;;;;;;18.23;7.60;;;5.20;99.90;;;;;;5036057;28;20348;-76
2022/04/04 07:52:32;;;;;;;17.50;6.50;;;5.10;99.90;;;;;;5036345;28;20260;-76
2022/04/04 07:54:58;;;;;;;14.73;6.40;;;5.20;99.90;;;;;;5037185;28;20605;-76
2022/04/04 07:57:24;;;;;;;15.63;7.00;;;5.20;99.90;;;;;;5036502;28;20260;-76
2022/04/04 07:59:53;;;;;;;13.57;6.93;;;5.20;99.90;;;;;;5036586;28;20275;-76
2022/04/04 08:02:19;;;;;;;14.67;6.60;;;5.20;99.90;;;;;;5036015;28;20183;-77
2022/04/04 08:04:45;;;;;;;15.37;6.57;;;5.20;99.90;;;;;;5036661;28;20187;-76
2022/04/04 08:07:12;;;;;;;17.10;6.97;;;5.30;99.90;;;;;;5036128;28;20205;-76
2022/04/04 08:09:38;;;;;;;16.20;6.67;;;5.30;99.90;;;;;;5036489;28;20526;-76
2022/04/04 08:12:04;;;;;;;10.97;6.10;;;5.40;99.90;;;;;;5036171;28;20193;-76
2022/04/04 08:14:30;;;;;;;15.27;6.80;;;5.50;99.90;;;;;;5036483;28;20189;-76
2022/04/04 08:16:56;;;;;;;13.47;6.50;;;5.50;99.90;;;;;;5036440;28;20177;-76
2022/04/04 08:19:21;;;;;;;13.83;6.33;;;5.60;99.90;;;;;;5036400;28;20292;-76
2022/04/04 08:21:47;;;;;;;13.20;6.30;;;5.60;99.90;;;;;;5036256;28;20271;-76
2022/04/04 08:24:13;;;;;;;12.80;5.73;;;5.60;99.90;;;;;;5036265;28;20225;-77
2022/04/04 08:26:40;;;;;;;10.10;5.07;;;5.60;99.90;;;;;;5036081;28;20197;-77
2022/04/04 08:29:08;;;;;;;14.47;6.33;;;5.70;99.90;;;;;;5036185;28;20229;-76
2022/04/04 08:31:34;;;;;;;15.00;6.43;;;5.70;99.90;;;;;;5036205;28;20192;-76
2022/04/04 08:34:00;;;;;;;10.70;5.20;;;5.80;99.90;;;;;;5036108;28;20170;-75
2022/04/04 08:36:25;;;;;;;11.87;5.77;;;5.80;99.90;;;;;;5036277;28;20184;-77
2022/04/04 08:38:51;;;;;;;11.90;5.67;;;5.80;99.90;;;;;;5038700;28;20199;-76
2022/04/04 08:41:17;;;;;;;11.80;5.83;;;5.80;99.90;;;;;;5037735;28;20230;-76
2022/04/04 08:43:49;;;;;;;15.20;6.77;;;5.80;99.90;;;;;;5036096;28;20180;-76
2022/04/04 08:46:15;;;;;;;8.27;4.73;;;5.80;99.90;;;;;;5036059;28;20211;-77
2022/04/04 08:48:42;;;;;;;11.13;5.87;;;5.80;99.90;;;;;;5035890;28;20174;-76
2022/04/04 08:51:08;;;;;;;11.07;6.20;;;5.70;99.90;;;;;;5035556;28;20543;-78
2022/04/04 08:53:38;;;;;;;13.23;6.37;;;5.70;99.90;;;;;;5035725;28;20169;-76
2022/04/04 08:56:05;;;;;;;11.03;6.33;;;5.80;99.90;;;;;;5035460;28;20587;-76
2022/04/04 08:58:31;;;;;;;12.63;5.77;;;5.80;99.90;;;;;;5035716;28;20268;-76
2022/04/04 09:00:58;;;;;;;17.90;6.43;;;5.70;99.90;;;;;;5035630;28;20183;-77
2022/04/04 09:03:29;;;;;;;13.40;6.10;;;5.80;99.90;;;;;;5035040;28;20615;-77
2022/04/04 09:06:00;;;;;;;11.47;6.37;;;5.80;99.90;;;;;;5035484;28;20190;-76
2022/04/04 09:08:30;;;;;;;14.20;6.60;;;5.80;99.90;;;;;;5035105;28;20180;-76
2022/04/04 09:11:00;;;;;;;9.93;6.00;;;5.80;99.90;;;;;;5035223;28;20185;-76
2022/04/04 09:13:28;;;;;;;15.27;7.07;;;5.80;99.90;;;;;;5034947;28;20686;-78
2022/04/04 09:16:02;;;;;;;11.13;6.00;;;5.70;99.90;;;;;;5035204;28;20227;-77
2022/04/04 09:18:37;;;;;;;12.37;7.00;;;5.70;99.90;;;;;;5053085;28;20644;-77
2022/04/04 09:21:04;;;;;;;12.53;6.13;;;5.50;99.90;;;;;;5033905;28;20202;-78
2022/04/04 09:23:34;;;;;;;12.50;6.93;;;5.40;99.90;;;;;;5033610;28;20189;-77
2022/04/04 09:26:01;;;;;;;11.23;7.30;;;5.30;99.90;;;;;;5034844;28;20221;-77
2022/04/04 09:28:27;;;;;;;13.53;7.60;;;5.30;99.90;;;;;;5034540;28;20257;-76
2022/04/04 09:31:07;;;;;;;21.63;8.33;;;5.20;99.90;;;;;;5034760;28;20664;-77
2022/04/04 09:33:38;;;;;;;13.60;7.50;;;5.20;99.90;;;;;;5034111;28;20166;-79
2022/04/04 09:36:05;;;;;;;9.17;5.47;;;5.20;99.90;;;;;;5035178;28;20545;-79
2022/04/04 09:38:34;;;;;;;15.40;8.57;;;5.10;99.90;;;;;;5035704;28;20209;-79
2022/04/04 09:41:19;;;;;;;14.50;7.80;;;4.90;99.90;;;;;;5034132;28;20584;-78
2022/04/04 09:43:53;;;;;;;15.03;8.73;;;4.90;99.90;;;;;;5049383;28;20641;-79
2022/04/04 09:46:20;;;;;;;14.87;8.50;;;5.00;99.90;;;;;;5024663;28;20205;-77
2022/04/04 09:49:04;;;;;;;21.47;9.33;;;5.00;99.90;;;;;;5017537;28;20588;-77
2022/04/04 09:51:38;;;;;;;12.83;6.30;;;5.10;99.90;;;;;;5013687;28;20607;-76
2022/04/04 09:54:06;;;;;;;16.57;8.47;;;5.10;99.90;;;;;;5014525;28;20264;-78
2022/04/04 09:56:32;;;;;;;11.43;7.63;;;5.10;99.90;;;;;;5014947;28;20174;-78
2022/04/04 09:59:02;;;;;;;18.23;9.27;;;5.20;99.90;;;;;;5015709;28;20249;-78
2022/04/04 10:01:31;;;;;;;13.90;7.70;;;5.20;99.90;;;;;;5014887;28;20723;-77
2022/04/04 10:03:57;;;;;;;13.90;7.77;;;5.10;99.90;;;;;;5015416;28;20183;-77
2022/04/04 10:06:28;;;;;;;16.87;7.83;;;5.20;99.90;;;;;;5015113;28;20689;-78
2022/04/04 10:08:57;;;;;;;12.53;6.17;;;5.20;99.90;;;;;;5015269;28;20582;-78
2022/04/04 10:11:23;;;;;;;17.33;9.50;;;5.20;99.90;;;;;;5014785;28;20185;-77
2022/04/04 10:13:52;;;;;;;23.90;9.53;;;5.40;99.90;;;;;;5016475;28;20182;-77
2022/04/04 10:16:18;;;;;;;19.63;8.70;;;5.40;99.90;;;;;;5015122;28;20175;-77
2022/04/04 10:18:45;;;;;;;13.33;7.23;;;5.40;99.90;;;;;;5014687;28;20158;-78
2022/04/04 10:21:11;;;;;;;15.90;8.73;;;5.40;99.90;;;;;;5014682;28;20651;-78
2022/04/04 10:23:40;;;;;;;15.37;7.93;;;5.30;99.90;;;;;;5014778;28;20250;-79
2022/04/04 10:26:07;;;;;;;12.30;7.23;;;5.30;99.90;;;;;;5014797;28;20200;-79
2022/04/04 10:28:38;;;;;;;15.40;7.53;;;5.30;99.90;;;;;;5015828;28;20179;-79
2022/04/04 10:31:16;;;;;;;16.40;8.43;;;5.30;99.90;;;;;;5015992;28;20646;-79
2022/04/04 10:33:43;;;;;;;10.10;6.43;;;5.20;99.90;;;;;;5016393;28;20257;-79
2022/04/04 10:36:22;;;;;;;11.37;6.03;;;5.20;99.90;;;;;;5016180;28;20229;-80
2022/04/04 10:38:54;;;;;;;13.03;7.83;;;5.20;99.90;;;;;;5016829;28;20262;-80
2022/04/04 10:41:30;;;;;;;12.50;7.43;;;5.20;99.90;;;;;;5016454;28;20170;-79
2022/04/04 10:43:57;;;;;;;14.10;7.97;;;5.20;99.90;;;;;;5016209;28;20174;-79
2022/04/04 10:46:24;;;;;;;17.00;8.17;;;5.20;99.90;;;;;;5034449;28;20205;-80
2022/04/04 10:49:00;;;;;;;15.17;8.60;;;5.20;99.90;;;;;;5017229;28;20711;-79
2022/04/04 10:51:26;;;;;;;17.20;9.27;;;5.20;99.90;;;;;;5016996;28;20209;-79
2022/04/04 10:53:54;;;;;;;18.77;9.43;;;5.20;99.90;;;;;;5017247;28;20537;-79
2022/04/04 10:56:22;;;;;;;15.77;8.70;;;5.10;99.90;;;;;;5018685;28;20178;-79
2022/04/04 10:58:50;;;;;;;14.37;8.53;;;5.10;99.90;;;;;;5015948;28;20184;-77
2022/04/04 11:01:21;;;;;;;16.67;8.70;;;5.30;99.90;;;;;;5033669;28;20180;-78
2022/04/04 11:03:58;;;;;;;15.73;9.47;;;5.30;99.90;;;;;;5017892;28;20271;-79
2022/04/04 11:09:31;;;;;;;18.43;10.07;;;5.20;99.90;;;;;;5039036;28;20211;-78
2022/04/04 11:12:00;;;;;;;15.50;8.90;;;5.30;99.90;;;;;;5020126;28;20196;-78
2022/04/04 11:14:33;;;;;;;14.50;8.90;;;5.30;99.90;;;;;;5037921;28;20170;-78
2022/04/04 11:19:57;;;;;;;14.73;9.67;;;5.30;99.90;;;;;;5038222;28;20206;-78
2022/04/04 11:22:31;;;;;;;14.93;8.30;;;5.30;99.90;;;;;;5020555;28;20181;-79
2022/04/04 11:25:03;;;;;;;20.87;9.47;;;5.30;99.90;;;;;;5020996;28;20535;-78
2022/04/04 11:27:33;;;;;;;15.67;8.83;;;5.20;99.90;;;;;;5020480;28;20555;-78
2022/04/04 11:30:10;;;;;;;16.00;9.63;;;5.20;99.90;;;;;;5020520;28;20555;-78
2022/04/04 11:32:43;;;;;;;17.37;9.00;;;5.20;99.90;;;;;;5020394;28;20221;-78
2022/04/04 11:35:22;;;;;;;14.20;8.90;;;5.30;99.90;;;;;;5019626;28;20304;-78
2022/04/04 11:37:56;;;;;;;16.87;9.43;;;5.30;99.90;;;;;;5020534;28;20183;-78
2022/04/04 11:40:29;;;;;;;18.20;9.10;;;5.30;99.90;;;;;;5021245;28;20202;-78
2022/04/04 11:42:57;;;;;;;11.97;7.30;;;5.30;99.90;;;;;;5019504;28;20174;-77
2022/04/04 11:45:27;;;;;;;15.97;8.20;;;5.20;99.90;;;;;;5019904;28;20329;-78
2022/04/04 11:47:58;;;;;;;12.20;7.40;;;5.20;99.90;;;;;;5019503;28;20186;-78
2022/04/04 11:50:30;;;;;;;14.47;8.90;;;5.20;99.90;;;;;;5019825;28;20612;-78
2022/04/04 11:52:59;;;;;;;13.17;6.63;;;5.20;99.90;;;;;;5017660;28;20259;-78
2022/04/04 11:55:27;;;;;;;13.83;8.50;;;5.20;99.90;;;;;;5019269;28;20180;-79
2022/04/04 11:58:09;;;;;;;10.10;6.53;;;5.30;99.90;;;;;;5018793;28;20187;-78
2022/04/04 12:00:37;;;;;;;16.50;8.13;;;5.30;99.90;;;;;;5019847;28;20198;-78
2022/04/04 12:03:11;;;;;;;13.10;7.37;;;5.30;99.90;;;;;;5036779;28;20227;-78
2022/04/04 12:05:44;;;;;;;10.53;6.37;;;5.30;99.90;;;;;;5017502;28;20454;-79
2022/04/04 12:08:12;;;;;;;11.77;7.10;;;5.30;99.90;;;;;;5019012;28;20189;-79
2022/04/04 12:10:38;;;;;;;14.13;6.50;;;5.30;99.90;;;;;;5018274;28;20259;-79
2022/04/04 12:13:11;;;;;;;10.07;6.50;;;5.30;99.90;;;;;;5017671;28;20672;-79
2022/04/04 12:15:40;;;;;;;10.77;7.57;;;5.30;99.90;;;;;;5016953;28;20170;-78
2022/04/04 12:18:07;;;;;;;9.67;6.07;;;5.30;99.90;;;;;;5016884;28;20175;-77
2022/04/04 12:20:41;;;;;;;10.93;7.00;;;5.30;99.90;;;;;;5016743;28;20201;-76
2022/04/04 12:26:04;;;;;;;14.37;6.80;;;5.30;99.90;;;;;;5010912;28;20558;-76
2022/04/04 12:28:33;;;;;;;9.63;6.73;;;5.30;99.90;;;;;;5016471;28;20174;-77
2022/04/04 12:31:19;;;;;;;9.13;5.50;;;5.40;99.90;;;;;;5017486;28;20202;-78
2022/04/04 12:34:01;;;;;;;13.83;7.60;;;5.30;99.90;;;;;;5017408;28;20647;-78
2022/04/04 12:36:38;;;;;;;15.40;8.60;;;5.40;99.90;;;;;;5016982;28;20174;-78
2022/04/04 12:39:24;;;;;;;16.37;9.10;;;5.30;99.90;;;;;;5016672;28;20258;-77
2022/04/04 12:41:54;;;;;;;20.47;12.60;;;5.40;99.90;;;;;;5016219;28;20203;-77
2022/04/04 12:44:22;;;;;;;21.23;13.10;;;5.40;99.90;;;;;;5016400;28;20294;-78
2022/04/04 12:46:48;;;;;;;18.80;11.83;;;5.40;99.90;;;;;;5016132;28;20194;-77
2022/04/04 12:49:17;;;;;;;19.03;11.97;;;5.40;99.90;;;;;;5016241;28;20196;-77
2022/04/04 12:51:58;;;;;;;12.50;8.23;;;5.40;99.90;;;;;;5016255;28;20174;-77
2022/04/04 12:54:31;;;;;;;11.90;8.33;;;5.30;99.90;;;;;;5016267;28;20271;-77
2022/04/04 12:56:58;;;;;;;13.20;8.77;;;5.40;99.90;;;;;;5016352;28;20189;-77
2022/04/04 12:59:27;;;;;;;10.70;6.20;;;5.30;99.90;;;;;;5016085;28;20194;-77
2022/04/04 13:02:09;;;;;;;11.50;7.27;;;5.30;99.90;;;;;;5015637;28;20178;-78